EGHH/BOH METAR and TAF weather

Enter ICAO airport designator
Station Type Date Time Source
EGHH METAR 2020/11/26 18:20 UTC NOAA

EGHH 261820Z 03006KT CAVOK 07/04 Q1021


Station Type Date Time Source
EGHH Decoded METAR 2020/11/26 18:20 UTC NOAA

Bournemouth Airport, United Kingdom (EGHH) 50-47N 001-50W 0M
Nov 26, 2020 - 01:20 PM EST / 2020.11.26 1820 UTC
Wind: from the NNE (030 degrees) at 7 MPH (6 KT):0
Visibility: greater than 7 mile(s):0
Temperature: 44 F (7 C)
Dew Point: 39 F (4 C)
Relative Humidity: 81%
Pressure (altimeter): 30.15 in. Hg (1021 hPa)
ob: EGHH 261820Z 03006KT CAVOK 07/04 Q1021
cycle: 18

Station Type Date Time Source
EGHH TAF 2020/02/21 21:06 UTC NOAA

TAF EGHH 210200Z 2021/2123 CNL

Example: see airport list